Pope AFB, North Carolina
Current Conditions -  °F | °C
As of 10:58 AM on Tuesday 21 Oct 2014 (Local Time) from KPOB Reporting Station
Clear Clear  
Wind Chill: 69°   Ceiling: Unl
Heat Index: 69°   Visibility: 10mi
Dew Point: 52°   Wind: 7mph
Humidity: 54%   Direction: 290°WNW
Pressure: 29.93"   Gusts: NA
Location:  35.17°N, 79.01°W
Report Text: KPOB 211458Z AUTO 29006KT 10SM CLR 21/11 A2993 RMK AO2 SLP137 T02070111 58002
Loading
Personal Weather Stations






























Interactive Weather Map
Tropical Storm Tracking
New forecast layout! Learn more

10-Day Weather Forecast

Advertisements
Track Severe Weather on mobile